Terminal Aerodrome Forecast
Issued by NWS

Home | Current Version | Previous Version | Text Only | Print | Product List | Glossary Off
Versions: 1 2 3 4 5 6 7 8 9 10 11 12 13 14 15

000
FTUS43 KOAX 192300
TAFCDR
TAF
KCDR 192335Z 2000/2024 33008KT P6SM FEW200
     FM200300 05004KT P6SM SKC
     FM202000 35010G19KT P6SM FEW200=

USA.gov is the U.S. government's official web portal to all federal, state and local government web resources and services.